createdAt,value
2023-03-30T00:03:55.218Z,1.88
2023-03-30T00:08:58.561Z,1.65
2023-03-30T00:14:01.142Z,1.60
2023-03-30T00:19:02.674Z,1.65
2023-03-30T00:24:04.324Z,2.10
2023-03-30T00:29:05.837Z,1.70
2023-03-30T00:34:07.360Z,1.83
2023-03-30T00:39:09.116Z,1.60
2023-03-30T00:44:48.497Z,1.42
2023-03-30T00:49:50.553Z,1.45
2023-03-30T00:54:54.180Z,2.40
2023-03-30T00:59:56.921Z,2.20
2023-03-30T01:04:58.487Z,1.92
2023-03-30T01:10:01.153Z,1.98
2023-03-30T01:15:02.771Z,2.03
2023-03-30T01:20:33.021Z,2.75
2023-03-30T01:25:53.061Z,2.25
2023-03-30T01:31:18.841Z,1.38
2023-03-30T01:36:48.545Z,1.80
2023-03-30T01:42:03.887Z,2.05
2023-03-30T01:47:16.351Z,2.00
2023-03-30T01:52:24.454Z,2.00
2023-03-30T01:57:34.011Z,2.45
2023-03-30T02:02:36.239Z,2.63
2023-03-30T02:07:40.166Z,2.42
2023-03-30T02:12:42.447Z,3.90
2023-03-30T02:17:46.041Z,2.80
2023-03-30T02:22:48.268Z,2.70
2023-03-30T02:27:50.304Z,3.65
2023-03-30T02:32:56.948Z,3.63
2023-03-30T02:38:41.742Z,4.90
2023-03-30T02:43:59.591Z,2.53
2023-03-30T02:49:16.727Z,3.92
2023-03-30T02:54:36.377Z,2.55
2023-03-30T03:00:08.826Z,2.75
2023-03-30T03:05:12.836Z,1.90
2023-03-30T03:10:36.285Z,2.17
2023-03-30T03:15:38.826Z,2.45
2023-03-30T03:20:43.231Z,2.08
2023-03-30T03:25:45.585Z,2.03
2023-03-30T03:30:49.807Z,2.80
2023-03-30T03:35:54.571Z,1.92
2023-03-30T03:40:59.177Z,2.45
2023-03-30T03:46:01.663Z,2.50
2023-03-30T03:51:03.627Z,2.63
2023-03-30T03:56:08.460Z,2.05
2023-03-30T04:01:10.468Z,2.40
2023-03-30T04:06:14.988Z,2.47
2023-03-30T04:11:17.770Z,3.03
2023-03-30T04:16:29.347Z,3.20
2023-03-30T04:21:55.667Z,3.38
2023-03-30T04:27:17.582Z,3.33
2023-03-30T04:32:47.172Z,3.20
2023-03-30T04:38:07.829Z,4.35
2023-03-30T04:43:29.948Z,3.90
2023-03-30T04:48:43.204Z,4.20
2023-03-30T04:54:21.152Z,4.05
2023-03-30T05:00:01.049Z,3.90
2023-03-30T05:05:22.556Z,3.83
2023-03-30T05:16:03.070Z,3.53
2023-03-30T05:21:24.229Z,3.38
2023-03-30T05:26:48.660Z,4.40
2023-03-30T05:32:03.185Z,4.03
2023-03-30T05:37:20.612Z,4.93
2023-03-30T05:42:40.994Z,3.30
2023-03-30T05:47:56.167Z,5.20
2023-03-30T05:53:11.310Z,4.57
2023-03-30T05:58:18.878Z,4.43
2023-03-30T06:03:39.157Z,4.68
2023-03-30T06:08:44.945Z,4.45
2023-03-30T06:13:51.933Z,4.18
2023-03-30T06:18:53.769Z,4.28
2023-03-30T06:23:56.755Z,3.95
2023-03-30T06:29:02.433Z,4.30
2023-03-30T06:34:04.549Z,5.18
2023-03-30T06:39:06.736Z,7.22
2023-03-30T06:44:14.870Z,7.68
2023-03-30T06:49:17.192Z,8.80
2023-03-30T06:54:20.380Z,9.27
2023-03-30T06:59:28.944Z,5.68
2023-03-30T07:04:50.253Z,7.72
2023-03-30T07:10:14.727Z,6.10
2023-03-30T07:15:16.774Z,8.07
2023-03-30T07:20:20.428Z,9.15
2023-03-30T07:25:35.655Z,5.03
2023-03-30T07:30:45.678Z,4.70
2023-03-30T07:35:49.919Z,4.50
2023-03-30T07:40:56.662Z,3.80
2023-03-30T07:45:59.486Z,3.55
2023-03-30T07:51:11.566Z,3.50
2023-03-30T07:56:21.136Z,3.60
2023-03-30T08:01:25.579Z,4.05
2023-03-30T08:06:45.728Z,3.90
2023-03-30T08:11:47.503Z,3.35
2023-03-30T08:16:49.571Z,3.25
2023-03-30T08:21:51.235Z,2.88
2023-03-30T08:26:52.791Z,2.35
2023-03-30T08:31:54.550Z,2.38
2023-03-30T08:36:58.114Z,2.33
2023-03-30T08:42:12.574Z,2.30
2023-03-30T08:47:29.675Z,2.10
2023-03-30T08:52:32.977Z,1.90
2023-03-30T08:57:39.842Z,1.98
2023-03-30T09:02:48.131Z,1.73
2023-03-30T09:07:55.677Z,1.70
2023-03-30T09:13:01.478Z,2.22
2023-03-30T09:18:34.821Z,2.20
2023-03-30T09:23:40.035Z,3.08
2023-03-30T09:28:54.710Z,2.60
2023-03-30T09:34:17.877Z,3.47
2023-03-30T09:39:22.011Z,2.63
2023-03-30T09:45:14.907Z,2.78
2023-03-30T09:50:24.698Z,3.50
2023-03-30T09:55:31.249Z,3.40
2023-03-30T10:00:34.321Z,3.30
2023-03-30T10:05:38.532Z,2.78
2023-03-30T10:10:41.137Z,2.97
2023-03-30T10:15:51.296Z,3.10
2023-03-30T10:21:30.864Z,2.72
2023-03-30T10:26:34.627Z,3.05
2023-03-30T10:31:39.476Z,2.55
2023-03-30T10:36:41.119Z,2.78
2023-03-30T10:41:43.138Z,2.25
2023-03-30T10:46:45.511Z,2.20
2023-03-30T10:51:59.195Z,2.60
2023-03-30T10:57:13.856Z,2.08
2023-03-30T11:02:41.677Z,2.53
2023-03-30T11:08:04.014Z,2.20
2023-03-30T11:13:14.115Z,2.47
2023-03-30T11:18:42.682Z,2.45
2023-03-30T11:23:54.749Z,2.67
2023-03-30T11:29:21.724Z,2.75
2023-03-30T11:34:31.165Z,2.35
2023-03-30T11:39:41.458Z,2.80
2023-03-30T11:44:43.648Z,2.95
2023-03-30T11:49:53.468Z,3.17
2023-03-30T12:00:46.092Z,3.20
2023-03-30T12:06:04.263Z,2.38
2023-03-30T12:11:16.383Z,3.15
2023-03-30T12:16:26.916Z,3.50
2023-03-30T12:21:53.520Z,2.75
2023-03-30T12:27:05.035Z,2.55
2023-03-30T12:32:20.000Z,2.92
2023-03-30T12:37:28.603Z,2.72
2023-03-30T12:42:36.747Z,2.72
2023-03-30T12:47:42.311Z,2.60
2023-03-30T12:53:04.064Z,3.42
2023-03-30T12:58:43.610Z,3.92
2023-03-30T13:03:52.770Z,5.25
2023-03-30T13:09:02.046Z,4.88
2023-03-30T13:14:27.170Z,5.73
2023-03-30T13:19:34.026Z,3.83
2023-03-30T13:25:00.659Z,3.65
2023-03-30T13:30:17.007Z,3.85
2023-03-30T13:35:37.025Z,4.10
2023-03-30T13:40:54.590Z,3.47
2023-03-30T13:46:27.078Z,3.42
2023-03-30T13:51:30.716Z,3.08
2023-03-30T13:56:38.062Z,3.10
2023-03-30T14:01:40.365Z,2.75
2023-03-30T14:06:49.592Z,2.53
2023-03-30T14:11:58.377Z,2.27
2023-03-30T14:17:02.388Z,1.40
2023-03-30T14:22:21.035Z,2.65
2023-03-30T14:27:22.743Z,1.80
2023-03-30T14:32:26.949Z,2.10
2023-03-30T14:37:30.689Z,1.80
2023-03-30T14:42:39.385Z,1.00
2023-03-30T14:47:41.046Z,0.95
2023-03-30T14:52:46.710Z,1.17
2023-03-30T14:57:49.263Z,0.77
2023-03-30T15:02:59.611Z,0.73
2023-03-30T15:08:03.184Z,1.00
2023-03-30T15:13:07.595Z,1.80
2023-03-30T15:18:20.243Z,1.00
2023-03-30T15:23:24.552Z,1.00
2023-03-30T15:28:30.722Z,1.02
2023-03-30T15:33:36.475Z,1.10
2023-03-30T15:38:54.662Z,1.48
2023-03-30T15:44:10.860Z,1.35
2023-03-30T15:49:16.270Z,0.80
2023-03-30T15:54:36.243Z,1.10
2023-03-30T15:59:41.764Z,0.85
2023-03-30T16:04:43.664Z,0.70
2023-03-30T16:09:45.757Z,0.90
2023-03-30T16:14:48.644Z,0.95
2023-03-30T16:19:50.339Z,0.75
2023-03-30T16:24:53.265Z,0.90
2023-03-30T16:29:54.808Z,1.10
2023-03-30T16:34:56.506Z,0.63
2023-03-30T16:39:58.117Z,1.00
2023-03-30T16:44:59.701Z,1.45
2023-03-30T16:50:01.223Z,0.98
2023-03-30T16:55:02.750Z,1.00
2023-03-30T17:00:16.075Z,1.15
2023-03-30T17:05:17.910Z,1.02
2023-03-30T17:10:28.963Z,1.50
2023-03-30T17:15:30.742Z,0.90
2023-03-30T17:20:41.611Z,1.20
2023-03-30T17:25:47.503Z,1.58
2023-03-30T17:30:52.909Z,1.30
2023-03-30T17:36:00.814Z,1.27
2023-03-30T17:41:02.773Z,1.08
2023-03-30T17:46:05.598Z,1.20
2023-03-30T17:51:07.739Z,1.17
2023-03-30T17:56:13.129Z,1.85
2023-03-30T18:01:16.701Z,1.05
2023-03-30T18:06:18.273Z,1.52
2023-03-30T18:11:19.853Z,1.48
2023-03-30T18:16:24.338Z,1.65
2023-03-30T18:21:25.912Z,1.05
2023-03-30T18:26:27.519Z,0.95
2023-03-30T18:31:29.098Z,1.08
2023-03-30T18:36:30.715Z,0.90
2023-03-30T18:41:32.229Z,0.77
2023-03-30T18:46:33.895Z,1.42
2023-03-30T18:51:35.533Z,1.52
2023-03-30T18:56:37.857Z,1.40
2023-03-30T19:01:40.216Z,0.88
2023-03-30T19:06:44.348Z,1.30
2023-03-30T19:11:45.975Z,1.15
2023-03-30T19:16:47.546Z,0.93
2023-03-30T19:21:49.183Z,0.85
2023-03-30T19:26:50.795Z,1.10
2023-03-30T19:31:53.842Z,1.23
2023-03-30T19:36:55.522Z,1.00
2023-03-30T19:41:57.187Z,1.30
2023-03-30T19:46:58.726Z,1.80
2023-03-30T19:52:00.274Z,1.05
2023-03-30T19:57:02.209Z,1.50
2023-03-30T20:02:03.891Z,1.80
2023-03-30T20:07:05.519Z,1.65
2023-03-30T20:12:07.747Z,1.25
2023-03-30T20:17:11.263Z,1.58
2023-03-30T20:22:12.865Z,1.17
2023-03-30T20:27:17.087Z,1.50
2023-03-30T20:32:18.737Z,1.52
2023-03-30T20:37:20.328Z,1.20
2023-03-30T20:42:26.364Z,1.30
2023-03-30T20:47:30.463Z,1.95
2023-03-30T20:52:33.565Z,1.20
2023-03-30T20:57:35.380Z,1.60
2023-03-30T21:02:36.985Z,2.38
2023-03-30T21:07:42.209Z,1.60
2023-03-30T21:12:43.801Z,1.60
2023-03-30T21:17:45.512Z,1.35
2023-03-30T21:22:47.046Z,1.33
2023-03-30T21:27:48.621Z,1.40
2023-03-30T21:32:50.193Z,1.00
2023-03-30T21:37:51.801Z,1.40
2023-03-30T21:42:53.351Z,1.27
2023-03-30T21:47:54.896Z,1.30
2023-03-30T21:52:58.148Z,1.23
2023-03-30T21:57:59.677Z,1.50
2023-03-30T22:03:01.303Z,1.20
2023-03-30T22:08:02.872Z,1.25
2023-03-30T22:13:04.918Z,1.20
2023-03-30T22:18:07.023Z,1.40
2023-03-30T22:23:08.642Z,1.23
2023-03-30T22:28:11.990Z,1.13
2023-03-30T22:33:14.410Z,1.38
2023-03-30T22:38:16.550Z,1.20
2023-03-30T22:43:18.163Z,1.10
2023-03-30T22:48:19.712Z,0.90
2023-03-30T22:53:21.231Z,0.88
2023-03-30T22:58:22.764Z,1.02
2023-03-30T23:03:24.355Z,0.80
2023-03-30T23:08:25.879Z,0.88
2023-03-30T23:13:27.421Z,1.60
2023-03-30T23:18:29.047Z,1.63
2023-03-30T23:23:30.568Z,1.08
2023-03-30T23:28:32.092Z,1.67
2023-03-30T23:33:33.676Z,1.17
2023-03-30T23:38:37.603Z,0.90
2023-03-30T23:43:39.326Z,1.02
2023-03-30T23:48:41.995Z,1.20
2023-03-30T23:53:43.662Z,1.00
2023-03-30T23:58:45.401Z,1.50
